LHKELDZD

Guest
Details From LHKE - KECSKEMET
To LDZD - ZADAR
Flight Number -
Tags decoded
Created
Modified
Stats Distance 255 nm / 471 km
Max Altitude 0 ft / 0 m
Waypoints 5
Social Downloads 1
Likes 0
Share VATSIM

Download

Looking for another format? Having issues loading an existing format? Contact us
Advertisement - Login to hide

Notes

Requested: LHKE BUG OMA ZDA LDZD

Route

LHKE BUG OMA ZDA LDZD

ID Type Via Altitude Latitude Longitude Leg Dist Tot Dist Heading (true) Name
O LHKE APT - 0 ft / 0 m 46.91750˚ 19.74922˚ - 0 nm - KECSKEMET
BUG NDB - 0 ft / 0 m 46.67747˚ 19.68229˚ 14 nm 14 nm 191° / 191° BUGAC NDB
OMA VOR - 0 ft / 0 m 44.95808˚ 16.80435˚ 158 nm 173 nm 230° / 228° OMARSKA VOR-DME
ZDA VOR - 0 ft / 0 m 44.09532˚ 15.36421˚ 80 nm 253 nm 230° / 229° ZADAR VOR-DME
O LDZD APT - 0 ft / 0 m 44.09723˚ 15.34798˚ 0 nm 254 nm 279° / 279° ZADAR

Altitude Profile

Advertisement - Login to hide

Weather


0- 5 10 15 20 25 30 35+ Temperature / ° C

Clouds and Precipitation
Forecast for 2017-12-12 18:00 UTC. Updated 36 minutes ago

Ground ~20,000 ft ~40,000 ft Winds

LHKE

Details ICAO LHKE
Name KECSKEMET
Region Hungary
Timezone Europe/Budapest (UTC+1.0)
Stats Elevation 376 ft / 115 m (AMSL)
Location 46.917500° 19.749222°
Runways 1
Magnetic Variation 4.802° E

METAR

LHKE 121715Z 20002KT CAVOK 09/07 Q1012 NOSIG RMK BLU

Decode

TAF

Not found

Departure Runways

ID Width Length Bearing (true) Bearing (mag) Surface Threshold Offset Overrun Length
12 197 ft / 60 m 8,178 ft / 2,493 m 123.04° 118.24° Concrete 0 ft / 0 m 200 ft / 61 m
30 197 ft / 60 m 8,178 ft / 2,493 m 303.06° 298.26° Concrete 0 ft / 0 m 200 ft / 61 m

LDZD

Details ICAO LDZD (ZAD)
Name ZADAR
Region Croatia
Timezone Europe/Zagreb (UTC+1.0)
Stats Elevation 289 ft / 88 m (AMSL)
Location 44.097225° 15.347978°
Runways 2
Magnetic Variation 3.701° E

METAR

LDZD 121730Z 16013KT 120V180 9999 BKN040 OVC070 15/11 Q1013 BECMG 17009KT TEMPO RA

Decode

TAF

TAF TAF LDZD 121725Z 1218/1318 17009KT 9999 BKN035 TX15/1218Z TN07/1306Z BECMG 1218/1220 30008KT TEMPO 1219/1306 32010KT 4000 RA BKN014 BECMG 1304/1306 VRB02KT BECMG 1310/1312 23006KT

Decode

Destination Runways

ID Width Length Bearing (true) Bearing (mag) Surface Threshold Offset Overrun Length
04 147 ft / 45 m 6,519 ft / 1,987 m 41.52° 37.82° Asphalt 0 ft / 0 m 0 ft / 0 m
14 147 ft / 45 m 8,159 ft / 2,487 m 135.79° 132.09° Asphalt 0 ft / 0 m 0 ft / 0 m
22 147 ft / 45 m 6,519 ft / 1,987 m 221.53° 217.83° Asphalt 0 ft / 0 m 0 ft / 0 m
32 147 ft / 45 m 8,159 ft / 2,487 m 315.81° 312.11° Asphalt 0 ft / 0 m 0 ft / 0 m

Approach Navaids

Runway Type Ident Frequency Range Bearing (true) Bearing (mag) Slope Elevation
14 Localiser IZD 110.10 MHz 25 nm / 46 km 135.69° 131.99° - 246 ft / 75 m (AMSL)
14 Glidescope IZD 110.10 MHz 25 nm / 46 km 135.69° 131.99° 3.00° 236 ft / 72 m (AMSL)